createdAt,value
2022-12-04T07:38:50.521Z,3.17
2022-12-04T07:41:52.371Z,3.40
2022-12-04T07:44:54.209Z,3.59
2022-12-04T07:47:55.990Z,3.80
2022-12-04T07:51:15.704Z,3.82
2022-12-04T07:54:17.567Z,3.89
2022-12-04T07:57:19.599Z,3.95
2022-12-04T08:00:21.770Z,3.99
2022-12-04T08:03:23.698Z,4.06
2022-12-04T08:06:27.783Z,4.03
2022-12-04T08:09:29.650Z,4.00
2022-12-04T08:12:33.225Z,4.01
2022-12-04T08:15:35.465Z,4.06
2022-12-04T08:18:38.060Z,4.06
2022-12-04T08:21:39.960Z,4.14
2022-12-04T08:24:42.820Z,4.19
2022-12-04T08:27:47.717Z,4.32
2022-12-04T08:30:49.770Z,4.43
2022-12-04T08:33:54.222Z,4.28
2022-12-04T08:36:56.089Z,4.27
2022-12-04T08:39:58.918Z,4.20
2022-12-04T08:43:00.923Z,4.27
2022-12-04T08:46:05.288Z,4.33
2022-12-04T08:49:07.499Z,4.38
2022-12-04T08:52:09.428Z,4.46
2022-12-04T08:55:11.313Z,4.48
2022-12-04T08:58:13.439Z,4.53
2022-12-04T09:01:16.105Z,4.60
2022-12-04T09:04:18.913Z,4.35
2022-12-04T09:07:21.001Z,4.38
2022-12-04T09:10:23.072Z,4.49
2022-12-04T09:13:25.026Z,4.39
2022-12-04T09:16:27.395Z,4.44
2022-12-04T09:19:31.223Z,4.55
2022-12-04T09:23:02.103Z,4.64
2022-12-04T09:25:59.496Z,4.56
2022-12-04T09:29:03.190Z,4.66
2022-12-04T09:32:05.473Z,4.51
2022-12-04T09:35:08.243Z,4.61
2022-12-04T18:53:07.269Z,3.27
2022-12-04T18:57:03.872Z,3.18
2022-12-04T19:01:00.448Z,3.24
2022-12-04T19:04:56.972Z,3.23
2022-12-04T19:08:53.508Z,3.16
2022-12-04T19:12:51.220Z,3.08
2022-12-04T19:16:53.993Z,2.98
2022-12-04T19:20:50.553Z,2.82
2022-12-04T19:24:47.191Z,2.73
2022-12-04T19:28:43.743Z,2.81
2022-12-04T19:32:40.286Z,2.82
2022-12-04T19:36:41.273Z,2.76
2022-12-04T19:40:37.869Z,2.69
2022-12-04T19:44:48.483Z,2.63
2022-12-04T19:48:49.780Z,3.24
2022-12-04T19:52:46.315Z,3.45
2022-12-04T19:56:45.837Z,3.70
2022-12-04T20:00:42.402Z,3.87
2022-12-04T20:04:39.044Z,3.85
2022-12-04T20:08:35.633Z,3.84
2022-12-04T20:12:32.192Z,3.79
2022-12-04T20:16:28.774Z,3.84
2022-12-04T20:20:25.548Z,3.90
2022-12-04T20:24:22.103Z,3.82
2022-12-04T20:28:18.636Z,3.95
2022-12-04T20:32:15.165Z,3.83
2022-12-04T20:36:12.251Z,3.81
2022-12-04T20:40:23.868Z,3.68
2022-12-04T20:44:20.809Z,3.72
2022-12-04T20:48:17.367Z,3.81
2022-12-04T20:52:17.036Z,3.84
2022-12-04T20:56:13.645Z,3.83
2022-12-04T21:00:10.202Z,3.85
2022-12-04T21:04:06.750Z,3.84
2022-12-04T21:08:03.311Z,3.80
2022-12-04T21:12:25.535Z,3.78
2022-12-04T21:16:22.849Z,3.81
2022-12-04T21:20:19.399Z,3.88
2022-12-04T21:24:15.960Z,3.83
2022-12-04T21:28:12.636Z,3.80
2022-12-04T21:32:09.184Z,3.87
2022-12-04T21:36:05.755Z,3.90
2022-12-04T21:40:02.460Z,3.84
2022-12-04T21:43:59.331Z,3.77
2022-12-04T21:47:55.903Z,3.86
2022-12-04T21:51:59.762Z,3.83
2022-12-04T21:55:57.249Z,3.80
2022-12-04T21:59:54.007Z,3.74
2022-12-04T22:03:53.372Z,3.67
2022-12-04T22:07:50.086Z,3.65
2022-12-04T22:11:46.705Z,3.65
2022-12-04T22:15:44.755Z,3.61
2022-12-04T22:19:41.350Z,3.60
2022-12-04T22:23:38.020Z,3.56
2022-12-04T22:27:34.548Z,3.54
2022-12-04T22:31:34.015Z,3.52
2022-12-04T22:35:30.829Z,3.52
2022-12-04T22:39:27.398Z,3.46
2022-12-04T22:43:24.099Z,3.47
2022-12-04T22:47:20.615Z,3.46
2022-12-04T22:51:19.711Z,3.44
2022-12-04T22:55:16.241Z,3.52
2022-12-04T22:59:12.818Z,3.51
2022-12-04T23:03:09.538Z,3.52
2022-12-04T23:07:06.145Z,3.58
2022-12-04T23:11:02.665Z,3.58
2022-12-04T23:14:59.168Z,3.57
2022-12-04T23:18:56.136Z,3.59
2022-12-04T23:22:54.805Z,3.61
2022-12-04T23:26:51.371Z,3.60
2022-12-04T23:30:48.134Z,3.65
2022-12-04T23:34:44.744Z,3.76
2022-12-04T23:38:41.295Z,3.83
2022-12-04T23:42:37.826Z,3.83
2022-12-04T23:46:34.462Z,3.77
2022-12-04T23:50:31.137Z,3.77
2022-12-04T23:54:28.481Z,3.72
2022-12-04T23:58:25.032Z,3.69
